Time;durP1;ratioP1;P1;durP2;ratioP2;P2;SDS_P1;SDS_P2;PMS_P1;PMS_P2;Temp;Humidity;BMP_temperature;BMP_pressure;BME280_temperature;BME280_humidity;BME280_pressure;Samples;Min_cycle;Max_cycle;Signal;HPM_P1;HPM_P2
2023/10/09 00:01:39;;;;;;;18.90;7.03;;;14.20;99.90;;;;;;4957635;28;20147;-73
2023/10/09 00:04:25;;;;;;;17.83;6.25;;;14.20;99.90;;;;;;4958228;28;20507;-73
2023/10/09 00:07:11;;;;;;;19.10;6.72;;;14.20;99.90;;;;;;4958240;28;20060;-75
2023/10/09 00:09:58;;;;;;;17.00;6.68;;;14.20;99.90;;;;;;4956724;28;20062;-73
2023/10/09 00:12:44;;;;;;;17.33;7.00;;;14.30;99.90;;;;;;4958013;28;20055;-74
2023/10/09 00:15:33;;;;;;;15.68;6.35;;;14.20;99.90;;;;;;4975609;28;20047;-71
2023/10/09 00:18:28;;;;;;;14.68;7.13;;;14.30;99.90;;;;;;4957752;28;20063;-72
2023/10/09 00:21:21;;;;;;;15.68;7.28;;;14.30;99.90;;;;;;4957752;28;20054;-72
2023/10/09 00:24:13;;;;;;;18.25;7.28;;;14.30;99.90;;;;;;4957910;28;20094;-74
2023/10/09 00:27:12;;;;;;;14.68;6.65;;;14.30;99.90;;;;;;4975568;28;20059;-73
2023/10/09 00:29:58;;;;;;;17.95;7.50;;;14.30;99.90;;;;;;4957862;28;20070;-74
2023/10/09 00:36:19;;;;;;;19.40;7.93;;;14.30;99.90;;;;;;4952486;28;20137;-72
2023/10/09 00:39:18;;;;;;;18.42;7.85;;;14.40;99.90;;;;;;4944388;28;20515;-73
2023/10/09 00:42:06;;;;;;;18.50;8.70;;;14.40;99.90;;;;;;4957534;28;20495;-72
2023/10/09 00:44:52;;;;;;;19.58;9.30;;;14.30;99.90;;;;;;4956796;28;20093;-73
2023/10/09 00:47:40;;;;;;;24.20;8.82;;;14.40;99.90;;;;;;4957406;28;20499;-76
2023/10/09 00:50:26;;;;;;;19.55;9.15;;;14.40;99.90;;;;;;4974877;28;20051;-74
2023/10/09 00:53:18;;;;;;;22.48;9.18;;;14.40;99.90;;;;;;4957326;28;20115;-76
2023/10/09 00:56:18;;;;;;;29.10;11.38;;;14.40;99.90;;;;;;4943978;28;20104;-73
2023/10/09 00:59:20;;;;;;;25.38;11.60;;;14.40;99.90;;;;;;4956920;28;20051;-73
2023/10/09 01:02:06;;;;;;;23.65;11.50;;;14.40;99.90;;;;;;4956641;28;20043;-73
2023/10/09 01:04:52;;;;;;;28.92;11.52;;;14.50;99.90;;;;;;4956579;28;20050;-79
2023/10/09 01:07:40;;;;;;;30.67;11.90;;;14.50;99.90;;;;;;4956822;28;20054;-78
2023/10/09 01:10:34;;;;;;;31.10;11.20;;;14.50;99.90;;;;;;4943696;28;20054;-74
2023/10/09 01:13:20;;;;;;;32.63;12.57;;;14.50;99.90;;;;;;4956974;28;20081;-72
2023/10/09 01:16:12;;;;;;;36.72;13.10;;;14.50;99.90;;;;;;4955546;28;20090;-73
2023/10/09 01:18:59;;;;;;;36.13;14.82;;;14.50;99.90;;;;;;4955990;28;20121;-75
2023/10/09 01:21:45;;;;;;;35.08;14.13;;;14.50;99.90;;;;;;4943573;28;20054;-73
2023/10/09 01:24:35;;;;;;;39.63;16.42;;;14.50;99.90;;;;;;4956013;28;20055;-74
2023/10/09 01:27:25;;;;;;;39.10;14.77;;;14.50;99.90;;;;;;4973050;28;20054;-73
2023/10/09 01:30:13;;;;;;;43.55;16.38;;;14.50;99.90;;;;;;4973819;28;20043;-72
2023/10/09 01:33:11;;;;;;;47.55;18.13;;;14.50;99.90;;;;;;4955622;28;20051;-80
2023/10/09 01:36:01;;;;;;;49.50;17.08;;;14.50;99.90;;;;;;4973897;28;20194;-74
2023/10/09 01:38:48;;;;;;;46.47;18.08;;;14.50;99.90;;;;;;4956598;28;20058;-72
2023/10/09 01:41:34;;;;;;;38.35;18.60;;;14.50;99.90;;;;;;4956365;28;20141;-73
2023/10/09 01:44:20;;;;;;;45.40;18.52;;;14.50;99.90;;;;;;4955910;28;20089;-74
2023/10/09 01:47:13;;;;;;;47.55;18.27;;;14.50;99.90;;;;;;4955709;28;20054;-72
2023/10/09 01:50:04;;;;;;;48.70;19.50;;;14.40;99.90;;;;;;4955316;28;20061;-72
2023/10/09 01:52:51;;;;;;;48.33;19.25;;;14.40;99.90;;;;;;4956285;28;20055;-73
2023/10/09 01:55:40;;;;;;;44.30;19.17;;;14.40;99.90;;;;;;4954656;28;20134;-72
2023/10/09 01:58:27;;;;;;;45.72;17.98;;;14.50;99.90;;;;;;4955050;28;20106;-73
2023/10/09 02:01:14;;;;;;;45.72;19.67;;;14.50;99.90;;;;;;4956226;28;20062;-73
2023/10/09 02:04:07;;;;;;;46.58;19.52;;;14.50;99.90;;;;;;4955565;28;20105;-74
2023/10/09 02:06:53;;;;;;;47.80;20.55;;;14.50;99.90;;;;;;4956119;28;20085;-80
2023/10/09 02:09:46;;;;;;;43.42;19.80;;;14.50;99.90;;;;;;4955108;28;20066;-73
2023/10/09 02:12:33;;;;;;;40.22;18.27;;;14.50;99.90;;;;;;4958911;28;20050;-74
2023/10/09 02:15:40;;;;;;;51.03;20.80;;;14.50;99.90;;;;;;4955904;28;20090;-73
2023/10/09 02:18:26;;;;;;;47.20;20.23;;;14.50;99.90;;;;;;4985836;28;20065;-72
2023/10/09 02:21:12;;;;;;;44.50;20.15;;;14.50;99.90;;;;;;4974482;28;20081;-76
2023/10/09 02:24:03;;;;;;;45.63;18.98;;;14.50;99.90;;;;;;4974247;28;20061;-72
2023/10/09 02:29:38;;;;;;;48.05;21.30;;;14.50;99.90;;;;;;4973668;28;20137;-72
2023/10/09 02:32:28;;;;;;;51.13;23.05;;;14.50;99.90;;;;;;4974068;28;20060;-74
2023/10/09 02:35:36;;;;;;;44.72;19.58;;;14.50;99.90;;;;;;4973705;28;20058;-73
2023/10/09 02:38:26;;;;;;;44.47;22.08;;;14.50;99.90;;;;;;4973350;28;20414;-72
2023/10/09 02:44:10;;;;;;;41.78;20.95;;;14.50;99.90;;;;;;4974040;28;20094;-74
2023/10/09 02:46:57;;;;;;;52.10;22.67;;;14.60;99.90;;;;;;4974435;28;20057;-75
2023/10/09 02:49:43;;;;;;;46.33;21.85;;;14.60;99.90;;;;;;4974172;28;20086;-77
2023/10/09 02:52:34;;;;;;;49.80;23.83;;;14.60;99.90;;;;;;4973578;28;20061;-75
2023/10/09 02:55:25;;;;;;;57.58;26.80;;;14.70;99.90;;;;;;4974131;28;20066;-72
2023/10/09 02:58:20;;;;;;;55.83;26.83;;;14.70;99.90;;;;;;4974275;28;20495;-73
2023/10/09 03:01:13;;;;;;;55.60;26.80;;;14.70;99.90;;;;;;4974036;28;20093;-73
2023/10/09 03:04:02;;;;;;;58.72;26.60;;;14.80;99.90;;;;;;4974067;28;20137;-77
2023/10/09 03:06:51;;;;;;;60.13;28.85;;;14.80;99.90;;;;;;4973216;28;20058;-74
2023/10/09 03:09:38;;;;;;;55.15;28.38;;;14.90;99.90;;;;;;4973994;28;20097;-77
2023/10/09 03:12:27;;;;;;;52.90;26.27;;;15.00;99.90;;;;;;4973674;28;20077;-73
2023/10/09 03:15:13;;;;;;;64.45;26.70;;;15.10;99.90;;;;;;4960265;28;20058;-72
2023/10/09 03:17:59;;;;;;;55.15;26.77;;;15.10;99.90;;;;;;4990522;28;20046;-77
2023/10/09 03:20:46;;;;;;;47.80;23.13;;;15.20;99.90;;;;;;4991368;28;20134;-73
2023/10/09 03:23:34;;;;;;;49.30;25.20;;;15.30;99.90;;;;;;4973766;28;20133;-78
2023/10/09 03:26:20;;;;;;;52.00;24.38;;;15.30;99.90;;;;;;4973881;28;20082;-76
2023/10/09 03:29:06;;;;;;;52.78;25.05;;;15.40;99.90;;;;;;4960271;28;20054;-88
2023/10/09 03:31:53;;;;;;;47.13;23.00;;;15.50;99.90;;;;;;4974242;28;20054;-80
2023/10/09 03:34:39;;;;;;;47.95;22.80;;;15.50;99.90;;;;;;4974245;28;20554;-73
2023/10/09 03:37:34;;;;;;;49.28;22.20;;;15.50;99.90;;;;;;4974150;28;20133;-82
2023/10/09 03:40:21;;;;;;;41.65;20.98;;;15.60;99.90;;;;;;4973909;28;20511;-74
2023/10/09 03:43:10;;;;;;;41.03;21.83;;;15.50;99.90;;;;;;4959372;28;20065;-78
2023/10/09 03:45:57;;;;;;;36.67;17.90;;;15.60;99.90;;;;;;4976097;28;20050;-76
2023/10/09 03:48:46;;;;;;;40.15;20.25;;;15.60;99.90;;;;;;4977515;28;20054;-75
2023/10/09 03:51:32;;;;;;;35.83;17.05;;;15.60;99.90;;;;;;4977420;28;20068;-78
2023/10/09 03:54:20;;;;;;;32.85;16.15;;;15.60;99.90;;;;;;4977261;28;20072;-81
2023/10/09 03:57:06;;;;;;;37.97;15.98;;;15.70;99.90;;;;;;4964769;28;20046;-73
2023/10/09 03:59:53;;;;;;;28.60;13.20;;;15.70;99.90;;;;;;4978396;28;20054;-83
2023/10/09 04:02:39;;;;;;;25.13;10.18;;;15.70;99.90;;;;;;4962923;28;20050;-77
2023/10/09 04:05:28;;;;;;;21.00;9.93;;;15.70;99.90;;;;;;4976649;28;20050;-80
2023/10/09 04:08:19;;;;;;;23.75;8.95;;;15.80;99.90;;;;;;4977499;28;20097;-75
2023/10/09 04:11:15;;;;;;;27.50;10.05;;;15.90;99.90;;;;;;4977271;28;20054;-84
2023/10/09 04:14:10;;;;;;;27.55;9.98;;;15.90;99.90;;;;;;4984090;28;20506;-73
2023/10/09 04:17:06;;;;;;;25.05;9.05;;;15.90;99.90;;;;;;4988226;28;20061;-73
2023/10/09 04:23:04;;;;;;;25.17;8.82;;;15.90;99.90;;;;;;4983156;28;20046;-73
2023/10/09 04:25:51;;;;;;;33.38;8.73;;;15.90;99.90;;;;;;4980189;28;20054;-73
2023/10/09 04:28:37;;;;;;;29.88;8.35;;;15.90;99.90;;;;;;4976047;28;20090;-72
2023/10/09 04:31:31;;;;;;;29.75;8.48;;;15.90;99.90;;;;;;4976200;28;20105;-72
2023/10/09 04:34:22;;;;;;;29.52;9.45;;;15.90;99.90;;;;;;4975660;28;20049;-73
2023/10/09 04:40:12;;;;;;;25.67;9.70;;;15.80;99.90;;;;;;4976540;28;20682;-72
2023/10/09 04:42:58;;;;;;;28.05;9.45;;;15.80;99.90;;;;;;4975485;28;20054;-73
2023/10/09 04:48:52;;;;;;;29.67;9.30;;;15.80;99.90;;;;;;4975638;28;20533;-73
2023/10/09 04:51:58;;;;;;;25.83;8.90;;;15.80;99.90;;;;;;4976318;28;20066;-73
2023/10/09 04:55:12;;;;;;;22.05;8.57;;;15.80;99.90;;;;;;4976366;28;20437;-73
2023/10/09 04:58:01;;;;;;;19.77;8.52;;;15.80;99.90;;;;;;4975883;28;20525;-77
2023/10/09 05:00:47;;;;;;;23.88;10.05;;;15.80;99.90;;;;;;4975799;28;20055;-74
2023/10/09 05:09:55;;;;;;;28.20;10.25;;;15.70;99.90;;;;;;4958858;28;20384;-74
2023/10/09 05:12:46;;;;;;;32.53;9.93;;;15.70;99.90;;;;;;4974665;28;20069;-79
2023/10/09 05:15:34;;;;;;;31.65;10.93;;;15.70;99.90;;;;;;4975800;28;20104;-74
2023/10/09 05:18:27;;;;;;;29.60;10.20;;;15.70;99.90;;;;;;4976499;28;20788;-78
2023/10/09 05:27:17;;;;;;;20.73;9.15;;;15.70;99.90;;;;;;4975543;28;20133;-73
2023/10/09 05:30:24;;;;;;;23.95;8.98;;;15.80;99.90;;;;;;4975130;28;20067;-74
2023/10/09 05:33:28;;;;;;;25.30;10.13;;;15.70;99.90;;;;;;4975714;28;20057;-74
2023/10/09 05:36:31;;;;;;;23.95;9.43;;;15.70;99.90;;;;;;4975911;28;20054;-74
2023/10/09 05:39:40;;;;;;;29.02;8.68;;;15.70;99.90;;;;;;4976578;28;20058;-76
2023/10/09 05:51:43;;;;;;;24.45;9.05;;;15.70;99.90;;;;;;4992424;28;20057;-76
2023/10/09 05:55:19;;;;;;;25.77;9.00;;;15.70;99.90;;;;;;4975402;28;20086;-77
2023/10/09 05:58:53;;;;;;;29.13;9.13;;;15.70;99.90;;;;;;4975177;28;20129;-77
2023/10/09 06:03:55;;;;;;;25.83;8.13;;;15.70;99.90;;;;;;4974824;28;20085;-75
2023/10/09 06:06:45;;;;;;;26.85;8.50;;;15.70;99.90;;;;;;4975326;28;20392;-78
2023/10/09 06:09:49;;;;;;;26.00;8.98;;;15.70;99.90;;;;;;4974695;28;20061;-91
2023/10/09 06:18:41;;;;;;;29.42;8.60;;;15.70;99.90;;;;;;4959563;28;20057;-74
2023/10/09 06:21:39;;;;;;;23.10;8.60;;;15.70;99.90;;;;;;4956075;28;20067;-74
2023/10/09 06:24:33;;;;;;;23.10;8.05;;;15.70;99.90;;;;;;4955960;28;20468;-73
2023/10/09 06:27:56;;;;;;;26.20;8.45;;;15.70;99.90;;;;;;4955788;28;20141;-76
2023/10/09 06:30:35;;;;;;;23.60;9.15;;;15.70;99.90;;;;;;4955702;28;20141;-73
2023/10/09 06:33:29;;;;;;;26.55;7.85;;;15.70;99.90;;;;;;4972981;28;20055;-74
2023/10/09 06:36:17;;;;;;;24.23;8.40;;;15.70;99.90;;;;;;4955836;28;20062;-77
2023/10/09 06:42:30;;;;;;;26.17;8.43;;;15.70;99.90;;;;;;4955702;28;20059;-81
2023/10/09 06:45:16;;;;;;;27.90;7.82;;;15.80;99.90;;;;;;4954956;28;20073;-75
2023/10/09 06:48:40;;;;;;;27.25;8.48;;;15.80;99.90;;;;;;4955937;28;20058;-82
2023/10/09 06:54:15;;;;;;;25.88;8.73;;;15.80;99.90;;;;;;4972758;28;20102;-81
2023/10/09 06:57:13;;;;;;;29.15;8.30;;;15.80;99.90;;;;;;4972839;28;20047;-74
2023/10/09 07:03:11;;;;;;;35.90;9.07;;;15.80;99.90;;;;;;4955354;28;20133;-74
2023/10/09 07:06:23;;;;;;;26.67;8.02;;;15.80;99.90;;;;;;4955663;28;20423;-91
2023/10/09 07:11:59;;;;;;;27.40;8.18;;;15.90;99.90;;;;;;4955215;28;20479;-78
2023/10/09 07:15:01;;;;;;;31.63;8.20;;;15.90;99.90;;;;;;4955807;28;20389;-74
2023/10/09 07:17:47;;;;;;;34.03;9.05;;;15.90;99.90;;;;;;4963568;28;20065;-86
2023/10/09 07:20:37;;;;;;;33.22;9.52;;;15.90;99.90;;;;;;4977417;28;20144;-77
2023/10/09 07:23:23;;;;;;;26.63;8.38;;;15.90;99.90;;;;;;4978286;28;20073;-76
2023/10/09 07:26:18;;;;;;;28.85;9.82;;;15.90;99.90;;;;;;4964221;28;20113;-78
2023/10/09 07:29:21;;;;;;;;;;;15.90;99.90;;;;;;4994533;28;20148;-83
2023/10/09 07:32:12;;;;;;;29.65;9.00;;;15.90;99.90;;;;;;4977895;28;19953;-78
2023/10/09 07:34:58;;;;;;;31.65;9.57;;;15.90;99.90;;;;;;4964585;28;20119;-77
2023/10/09 07:37:50;;;;;;;27.88;8.00;;;15.90;99.90;;;;;;4995339;28;20506;-75
2023/10/09 07:46:30;;;;;;;36.92;9.60;;;15.90;99.90;;;;;;4976435;28;20137;-77
2023/10/09 07:49:24;;;;;;;23.15;8.85;;;15.90;99.90;;;;;;4977120;28;20060;-73
2023/10/09 07:52:10;;;;;;;33.42;8.85;;;15.90;99.90;;;;;;4963672;28;20090;-73
2023/10/09 07:55:02;;;;;;;34.47;9.65;;;15.90;99.90;;;;;;4993997;28;20515;-75
2023/10/09 07:57:52;;;;;;;41.72;10.95;;;16.00;99.90;;;;;;4977002;28;20065;-74
2023/10/09 08:04:05;;;;;;;36.60;8.65;;;16.00;99.90;;;;;;4971654;28;20054;-75
2023/10/09 08:06:50;;;;;;;36.50;9.85;;;16.00;99.90;;;;;;4976619;28;20485;-74
2023/10/09 08:10:43;;;;;;;31.83;9.05;;;16.00;99.90;;;;;;4994115;28;20050;-80
2023/10/09 08:15:52;;;;;;;30.75;10.07;;;16.00;99.90;;;;;;4975560;28;20137;-80
2023/10/09 08:18:44;;;;;;;35.30;9.05;;;16.10;99.90;;;;;;4975895;28;20075;-77
2023/10/09 08:21:43;;;;;;;29.20;8.57;;;16.10;99.90;;;;;;4975492;28;20130;-73
2023/10/09 08:24:41;;;;;;;32.55;8.25;;;16.10;99.90;;;;;;4962838;28;20058;-74
2023/10/09 08:33:40;;;;;;;30.67;8.15;;;16.20;99.90;;;;;;4993837;28;20046;-77
2023/10/09 08:36:22;;;;;;;28.75;8.07;;;16.20;99.90;;;;;;4976125;28;20054;-78
2023/10/09 08:39:25;;;;;;;32.53;9.48;;;16.20;99.90;;;;;;4975998;28;20061;-77
2023/10/09 08:42:11;;;;;;;39.42;9.02;;;16.20;99.90;;;;;;4978601;28;20107;-75
2023/10/09 08:45:00;;;;;;;35.30;9.20;;;16.30;99.90;;;;;;4976165;28;20054;-79
2023/10/09 08:47:49;;;;;;;29.25;8.32;;;16.30;99.90;;;;;;4976474;28;20054;-86
2023/10/09 08:50:36;;;;;;;46.00;9.70;;;16.30;99.90;;;;;;4976239;28;20058;-75
2023/10/09 08:53:24;;;;;;;33.97;8.35;;;16.30;99.90;;;;;;4992939;28;20499;-75
2023/10/09 08:56:10;;;;;;;34.08;10.18;;;16.40;99.90;;;;;;4976253;28;20054;-75
2023/10/09 08:59:01;;;;;;;28.75;8.13;;;16.40;99.90;;;;;;4994513;28;20073;-73
2023/10/09 09:01:49;;;;;;;29.67;8.52;;;16.40;99.90;;;;;;4993655;28;20050;-76
2023/10/09 09:04:40;;;;;;;32.55;9.35;;;16.40;99.90;;;;;;4962607;28;20473;-78
2023/10/09 09:07:39;;;;;;;40.45;8.75;;;16.50;99.90;;;;;;4993143;28;20050;-82
2023/10/09 09:10:35;;;;;;;36.97;9.23;;;16.50;99.90;;;;;;4975645;28;20155;-82
2023/10/09 09:13:21;;;;;;;32.63;9.63;;;16.50;99.90;;;;;;4975524;28;20050;-73
2023/10/09 09:16:17;;;;;;;29.10;8.00;;;16.50;99.90;;;;;;4975065;28;20141;-75
2023/10/09 09:19:17;;;;;;;28.13;9.35;;;16.50;99.90;;;;;;4974899;28;20058;-79
2023/10/09 09:22:12;;;;;;;32.00;8.60;;;16.50;99.90;;;;;;4974976;28;20767;-74
2023/10/09 09:25:09;;;;;;;33.17;8.35;;;16.50;99.90;;;;;;4975721;28;20081;-73
2023/10/09 09:27:58;;;;;;;31.92;9.20;;;16.60;99.90;;;;;;4975397;28;20039;-73
2023/10/09 09:30:47;;;;;;;28.75;8.35;;;16.70;99.90;;;;;;4975464;28;20061;-79
2023/10/09 09:33:39;;;;;;;27.73;8.27;;;16.80;99.90;;;;;;4961553;28;20058;-81
2023/10/09 09:36:29;;;;;;;36.92;8.77;;;16.80;99.90;;;;;;4975441;28;20054;-73
2023/10/09 09:39:19;;;;;;;33.40;8.10;;;16.90;99.90;;;;;;4975615;28;20050;-77
2023/10/09 09:42:13;;;;;;;28.02;8.55;;;17.00;99.90;;;;;;4974772;28;20134;-73
2023/10/09 09:45:02;;;;;;;29.77;8.52;;;17.00;99.90;;;;;;4974890;28;20061;-87
2023/10/09 09:47:54;;;;;;;30.60;7.80;;;17.00;99.90;;;;;;4975590;28;20145;-78
2023/10/09 09:50:45;;;;;;;31.05;7.72;;;17.00;99.90;;;;;;4974860;28;20056;-75
2023/10/09 09:53:34;;;;;;;18.30;7.63;;;17.00;99.90;;;;;;4974723;28;20554;-76
2023/10/09 09:56:24;;;;;;;24.80;6.65;;;17.00;99.90;;;;;;4975572;28;20058;-75
2023/10/09 09:59:21;;;;;;;24.52;6.57;;;17.00;99.90;;;;;;4976419;28;20057;-73
2023/10/09 10:02:17;;;;;;;24.17;6.38;;;17.00;99.90;;;;;;4979153;28;20062;-74
2023/10/09 10:05:11;;;;;;;23.52;7.72;;;16.90;99.90;;;;;;4979119;28;20058;-73
2023/10/09 10:08:04;;;;;;;26.85;7.63;;;16.90;99.90;;;;;;4978782;28;20054;-76
2023/10/09 10:10:53;;;;;;;27.58;7.00;;;16.80;99.90;;;;;;4975419;28;20160;-75
2023/10/09 10:13:43;;;;;;;25.90;7.28;;;16.80;99.90;;;;;;4992578;28;20108;-80
2023/10/09 10:16:34;;;;;;;27.08;8.95;;;16.70;99.90;;;;;;4974948;28;20421;-79
2023/10/09 10:22:27;;;;;;;25.65;7.03;;;16.70;99.90;;;;;;4974967;28;20105;-77
2023/10/09 10:25:35;;;;;;;20.20;6.07;;;16.80;99.90;;;;;;4974858;28;20686;-80
2023/10/09 10:28:38;;;;;;;18.55;5.78;;;16.80;99.90;;;;;;4992778;28;20053;-73
2023/10/09 10:32:00;;;;;;;18.17;4.95;;;16.80;99.90;;;;;;4975645;28;20081;-75
2023/10/09 10:34:46;;;;;;;17.45;4.53;;;16.70;99.90;;;;;;4959828;28;20065;-74
2023/10/09 10:37:38;;;;;;;14.35;4.68;;;16.70;99.90;;;;;;4973945;28;20472;-73
2023/10/09 10:43:32;;;;;;;23.02;5.32;;;16.70;99.90;;;;;;4973985;28;20506;-79
2023/10/09 10:46:32;;;;;;;17.25;4.80;;;16.60;99.90;;;;;;4972990;28;20100;-81
2023/10/09 10:49:22;;;;;;;15.13;4.72;;;16.60;99.90;;;;;;4973876;28;20133;-82
2023/10/09 10:52:17;;;;;;;14.30;3.80;;;16.50;99.90;;;;;;4973646;28;20109;-76
2023/10/09 10:58:47;;;;;;;16.30;4.88;;;16.50;99.90;;;;;;4974200;28;20054;-78
2023/10/09 11:01:52;;;;;;;16.73;4.97;;;16.50;99.90;;;;;;4974073;28;20089;-74
2023/10/09 11:04:41;;;;;;;18.92;4.47;;;16.50;99.90;;;;;;4961549;28;20399;-83
2023/10/09 11:07:27;;;;;;;22.27;4.40;;;16.50;99.90;;;;;;4974724;28;20532;-82
2023/10/09 11:10:27;;;;;;;15.75;5.07;;;16.50;99.90;;;;;;4974494;28;20090;-81
2023/10/09 11:16:41;;;;;;;20.98;5.30;;;16.50;99.90;;;;;;4974473;28;20208;-75
2023/10/09 11:25:18;;;;;;;15.55;4.80;;;17.20;99.90;;;;;;4974178;28;20077;-79
2023/10/09 11:28:29;;;;;;;16.70;4.53;;;17.60;99.90;;;;;;4973484;28;20051;-82
2023/10/09 11:31:18;;;;;;;11.15;3.25;;;18.00;99.90;;;;;;4958957;28;20158;-77
2023/10/09 11:34:28;;;;;;;15.10;4.78;;;17.80;99.90;;;;;;4973562;28;20042;-77
2023/10/09 11:40:47;;;;;;;20.77;4.88;;;17.60;99.90;;;;;;4989999;28;20054;-77
2023/10/09 11:44:04;;;;;;;12.85;4.40;;;17.60;99.90;;;;;;4973801;28;20062;-76
2023/10/09 11:50:13;;;;;;;17.65;4.65;;;17.40;99.90;;;;;;4973584;28;20511;-78
2023/10/09 11:53:08;;;;;;;19.67;4.05;;;17.50;99.90;;;;;;4990634;28;20173;-75
2023/10/09 11:55:54;;;;;;;17.65;4.30;;;17.40;99.90;;;;;;4973056;28;20145;-78
2023/10/09 11:58:40;;;;;;;19.45;4.38;;;17.50;99.90;;;;;;4973934;28;20069;-82
2023/10/09 12:01:35;;;;;;;17.05;4.20;;;17.50;99.90;;;;;;4960325;28;20050;-75
2023/10/09 12:04:29;;;;;;;21.38;4.63;;;17.50;99.90;;;;;;4973396;28;20431;-75
2023/10/09 12:07:16;;;;;;;23.20;4.88;;;17.50;99.90;;;;;;4976307;28;20055;-73
2023/10/09 12:10:02;;;;;;;15.77;4.07;;;17.50;99.90;;;;;;4977363;28;20057;-77
2023/10/09 12:12:49;;;;;;;20.13;4.43;;;17.60;99.90;;;;;;4977293;28;20055;-80
2023/10/09 12:15:38;;;;;;;18.52;4.38;;;17.50;99.90;;;;;;4976893;28;20054;-82
2023/10/09 12:18:24;;;;;;;19.73;4.70;;;17.50;99.90;;;;;;4992793;28;20065;-84
2023/10/09 12:21:15;;;;;;;19.88;3.63;;;17.40;99.90;;;;;;4963057;28;20806;-74
2023/10/09 12:24:01;;;;;;;15.95;4.15;;;17.40;99.90;;;;;;4962833;28;20050;-74
2023/10/09 12:26:48;;;;;;;16.15;4.05;;;17.40;99.90;;;;;;4977019;28;20058;-78
2023/10/09 12:29:34;;;;;;;9.18;3.80;;;17.50;99.90;;;;;;4976451;28;20050;-82
2023/10/09 12:32:20;;;;;;;15.05;3.72;;;17.60;99.90;;;;;;4976956;28;20076;-74
2023/10/09 12:35:17;;;;;;;22.85;4.85;;;17.60;99.90;;;;;;4976634;28;20422;-73
2023/10/09 12:38:08;;;;;;;18.27;4.15;;;17.70;99.90;;;;;;4976345;28;20062;-80
2023/10/09 12:41:19;;;;;;;16.58;3.97;;;17.80;99.90;;;;;;4976396;28;20093;-73
2023/10/09 12:44:11;;;;;;;18.00;4.05;;;17.80;99.90;;;;;;4976765;28;20066;-73
2023/10/09 12:47:03;;;;;;;18.40;4.90;;;17.90;99.90;;;;;;4976875;28;20141;-74
2023/10/09 12:49:49;;;;;;;15.52;3.20;;;17.90;99.90;;;;;;4993706;28;20491;-74
2023/10/09 12:52:37;;;;;;;21.85;3.92;;;17.90;99.90;;;;;;4976426;28;20054;-78
2023/10/09 12:55:31;;;;;;;15.98;3.78;;;17.80;99.90;;;;;;4976016;28;20059;-76
2023/10/09 12:58:18;;;;;;;17.05;4.70;;;17.80;99.90;;;;;;4962747;28;20050;-75
2023/10/09 13:01:11;;;;;;;13.43;3.35;;;17.70;99.90;;;;;;4975106;28;20065;-77
2023/10/09 13:04:01;;;;;;;15.27;3.85;;;17.70;99.90;;;;;;4975744;28;20058;-88
2023/10/09 13:06:47;;;;;;;14.63;2.83;;;17.60;99.90;;;;;;4975485;28;20069;-73
2023/10/09 13:09:35;;;;;;;12.65;2.88;;;17.60;99.90;;;;;;4993600;28;20108;-85
2023/10/09 13:12:22;;;;;;;12.27;3.00;;;17.50;99.90;;;;;;4961377;28;20129;-74
2023/10/09 13:15:12;;;;;;;14.18;3.10;;;17.50;99.90;;;;;;4976504;28;20046;-76
2023/10/09 13:17:58;;;;;;;15.85;3.53;;;17.40;99.90;;;;;;4976368;28;20058;-76
2023/10/09 13:20:45;;;;;;;15.50;3.65;;;17.40;99.90;;;;;;4975613;28;20414;-80
2023/10/09 13:23:46;;;;;;;8.75;2.30;;;17.40;99.90;;;;;;4979355;28;20058;-75
2023/10/09 13:26:35;;;;;;;9.00;2.40;;;17.40;99.90;;;;;;4980006;28;20153;-76
2023/10/09 13:29:24;;;;;;;12.38;2.65;;;17.40;99.90;;;;;;4980259;28;20124;-76
2023/10/09 13:32:16;;;;;;;12.18;2.75;;;17.40;99.90;;;;;;4979484;28;20055;-74
2023/10/09 13:35:03;;;;;;;9.35;2.33;;;17.30;99.90;;;;;;4978857;28;20068;-73
2023/10/09 13:37:55;;;;;;;14.20;2.42;;;17.30;99.90;;;;;;4974663;28;20462;-73
2023/10/09 13:40:41;;;;;;;9.25;2.30;;;17.20;99.90;;;;;;4992360;28;20046;-73
2023/10/09 13:43:28;;;;;;;13.70;2.92;;;17.20;99.90;;;;;;4975028;28;20058;-73
2023/10/09 13:46:17;;;;;;;12.88;2.90;;;17.10;99.90;;;;;;4975285;28;20066;-73
2023/10/09 13:49:03;;;;;;;10.70;2.20;;;17.10;99.90;;;;;;4975214;28;20503;-73
2023/10/09 13:51:50;;;;;;;10.05;2.30;;;17.00;99.90;;;;;;4974611;28;20054;-74
2023/10/09 13:57:30;;;;;;;10.48;2.22;;;17.10;99.90;;;;;;4974311;28;20501;-74
2023/10/09 14:00:33;;;;;;;7.70;1.95;;;17.20;99.90;;;;;;4974946;28;20058;-73
2023/10/09 14:03:23;;;;;;;9.38;2.03;;;17.20;99.90;;;;;;4974067;28;20066;-74
2023/10/09 14:06:12;;;;;;;11.73;2.65;;;17.30;99.90;;;;;;4974167;28;20062;-73
2023/10/09 14:09:04;;;;;;;10.40;2.10;;;17.30;99.90;;;;;;4974814;28;20112;-73
2023/10/09 14:11:52;;;;;;;9.23;1.70;;;17.30;99.90;;;;;;4992068;28;20054;-74
2023/10/09 14:14:48;;;;;;;11.50;2.00;;;17.30;99.90;;;;;;4961215;28;20065;-74
2023/10/09 14:17:34;;;;;;;14.38;3.13;;;17.30;99.90;;;;;;4977889;28;20451;-73
2023/10/09 14:20:31;;;;;;;7.00;1.75;;;17.30;99.90;;;;;;4974613;28;20632;-74
2023/10/09 14:23:20;;;;;;;13.48;2.50;;;17.30;99.90;;;;;;4974831;28;20055;-73
2023/10/09 14:26:06;;;;;;;12.68;1.95;;;17.30;99.90;;;;;;4974547;28;20054;-74
2023/10/09 14:28:59;;;;;;;5.60;2.08;;;17.40;99.90;;;;;;4973599;28;20061;-73
2023/10/09 14:31:59;;;;;;;16.55;2.08;;;17.50;99.90;;;;;;4961920;28;20399;-74
2023/10/09 14:34:54;;;;;;;10.52;1.92;;;17.50;99.90;;;;;;4974578;28;20055;-73
2023/10/09 14:37:41;;;;;;;13.70;1.88;;;17.50;99.90;;;;;;4960371;28;20054;-73
2023/10/09 14:40:29;;;;;;;7.22;2.10;;;17.50;99.90;;;;;;4973708;28;20054;-81
2023/10/09 14:43:27;;;;;;;10.63;1.63;;;17.50;99.90;;;;;;4974076;28;20479;-73
2023/10/09 14:46:14;;;;;;;4.10;1.48;;;17.50;99.90;;;;;;4960540;28;20058;-75
2023/10/09 14:49:00;;;;;;;6.78;1.85;;;17.50;99.90;;;;;;4973911;28;20050;-73
2023/10/09 14:51:46;;;;;;;7.60;2.45;;;17.60;99.90;;;;;;4974238;28;20084;-73
2023/10/09 14:54:32;;;;;;;9.68;1.65;;;18.10;99.90;;;;;;4973681;28;20054;-74
2023/10/09 14:57:18;;;;;;;8.20;2.20;;;18.70;99.90;;;;;;4973452;28;20062;-85
2023/10/09 15:00:13;;;;;;;5.35;1.65;;;19.00;99.90;;;;;;4973789;28;20204;-75
2023/10/09 15:03:00;;;;;;;9.27;1.58;;;19.20;99.90;;;;;;4990072;28;20050;-77
2023/10/09 15:05:46;;;;;;;6.82;2.17;;;19.10;99.90;;;;;;4972769;28;20072;-75
2023/10/09 15:08:34;;;;;;;22.65;3.17;;;18.90;99.90;;;;;;4960166;28;20133;-74
2023/10/09 15:11:25;;;;;;;7.07;1.92;;;18.70;99.90;;;;;;4973643;28;20054;-73
2023/10/09 15:14:11;;;;;;;7.03;1.75;;;18.60;99.90;;;;;;4974164;28;20148;-73
2023/10/09 15:16:59;;;;;;;6.40;1.70;;;18.50;99.90;;;;;;4973556;28;20511;-74
2023/10/09 15:19:45;;;;;;;10.60;1.95;;;18.50;99.90;;;;;;4973354;28;20069;-81
2023/10/09 15:22:36;;;;;;;11.30;1.75;;;18.40;99.90;;;;;;4973664;28;20506;-81
2023/10/09 15:25:22;;;;;;;12.18;1.70;;;18.20;99.90;;;;;;4973605;28;20054;-75
2023/10/09 15:28:12;;;;;;;7.10;1.60;;;18.10;99.90;;;;;;4973980;28;20274;-74
2023/10/09 15:30:58;;;;;;;15.75;1.80;;;18.00;99.90;;;;;;4974322;28;20517;-77
2023/10/09 15:33:47;;;;;;;6.53;1.40;;;17.80;99.90;;;;;;4974134;28;20066;-75
2023/10/09 15:36:33;;;;;;;12.95;1.90;;;17.80;99.90;;;;;;4973674;28;20086;-77
2023/10/09 15:39:19;;;;;;;8.18;1.83;;;17.80;99.90;;;;;;4973426;28;20061;-74
2023/10/09 15:42:06;;;;;;;11.32;2.00;;;17.70;99.90;;;;;;4977312;28;20054;-75
2023/10/09 15:44:54;;;;;;;13.93;2.03;;;17.60;99.90;;;;;;4979030;28;20522;-75
2023/10/09 15:47:40;;;;;;;11.95;2.05;;;17.50;99.90;;;;;;4977133;28;20058;-75
2023/10/09 15:50:26;;;;;;;10.82;2.75;;;17.40;99.90;;;;;;4962888;28;20086;-74
2023/10/09 15:53:12;;;;;;;10.40;1.80;;;17.30;99.90;;;;;;4977101;28;20097;-74
2023/10/09 15:56:01;;;;;;;10.80;2.10;;;17.20;99.90;;;;;;4976755;28;20061;-84
2023/10/09 15:58:47;;;;;;;14.70;2.20;;;17.20;99.90;;;;;;4994647;28;20511;-73
2023/10/09 16:01:35;;;;;;;8.80;1.65;;;17.10;99.90;;;;;;4993616;28;20108;-74
2023/10/09 16:04:21;;;;;;;9.82;1.80;;;17.10;99.90;;;;;;4977199;28;20046;-73
2023/10/09 16:07:09;;;;;;;8.80;1.95;;;17.00;99.90;;;;;;4976282;28;20105;-73
2023/10/09 16:09:55;;;;;;;11.45;1.92;;;16.90;99.90;;;;;;4976375;28;20054;-83
2023/10/09 16:12:42;;;;;;;16.98;1.98;;;16.90;99.90;;;;;;4976821;28;20062;-74
2023/10/09 16:15:28;;;;;;;10.63;2.25;;;16.80;99.90;;;;;;4963588;28;20502;-73
2023/10/09 16:18:14;;;;;;;11.55;1.90;;;16.80;99.90;;;;;;4951359;28;20055;-78
2023/10/09 16:21:04;;;;;;;9.35;2.10;;;16.80;99.90;;;;;;4958247;28;20443;-75
2023/10/09 16:23:54;;;;;;;8.05;1.20;;;16.80;99.90;;;;;;4958203;28;20051;-74
2023/10/09 16:26:41;;;;;;;7.03;1.05;;;16.70;99.90;;;;;;4974810;28;20050;-72